Time,TemperatureF,DewpointF,PressureIn,WindDirection,WindDirectionDegrees,WindSpeedMPH,WindSpeedGustMPH,Humidity,HourlyPrecipIn,Conditions,Clouds,dailyrainin,SoftwareType,DateUTC
2013-05-22 00:00:00,64.2,64.2,29.85,South,181,0.0,0.0,100,0.00,,,0.00,VWS V14.01,2013-05-22 04:00:00,
2013-05-22 00:05:00,64.2,64.2,29.85,South,181,0.0,2.2,100,0.00,,,0.00,VWS V14.01,2013-05-22 04:05:00,
2013-05-22 00:10:00,64.2,64.2,29.85,South,181,0.0,2.2,100,0.00,,,0.00,VWS V14.01,2013-05-22 04:10:00,
2013-05-22 00:15:00,64.0,64.0,29.85,South,181,0.0,2.2,100,0.00,,,0.00,VWS V14.01,2013-05-22 04:15:00,
2013-05-22 00:20:00,64.2,64.2,29.85,South,181,0.0,0.0,100,0.00,,,0.00,VWS V14.01,2013-05-22 04:20:00,
2013-05-22 00:25:00,63.7,63.7,29.85,South,181,0.0,0.0,100,0.00,,,0.00,VWS V14.01,2013-05-22 04:25:00,
2013-05-22 00:30:00,63.9,63.9,29.85,South,181,0.0,0.0,100,0.00,,,0.00,VWS V14.01,2013-05-22 04:30:00,
2013-05-22 00:35:00,63.9,63.9,29.85,NNW,346,3.1,5.4,100,0.00,,,0.00,VWS V14.01,2013-05-22 04:35:00,
2013-05-22 00:40:00,63.9,63.9,29.85,North,11,3.6,5.4,100,0.00,,,0.00,VWS V14.01,2013-05-22 04:40:00,
2013-05-22 00:45:00,63.9,63.9,29.85,North,0,3.1,5.4,100,0.00,,,0.00,VWS V14.01,2013-05-22 04:45:00,
2013-05-22 00:50:00,63.9,63.9,29.85,North,0,0.0,5.4,100,0.00,,,0.00,VWS V14.01,2013-05-22 04:50:00,
2013-05-22 00:55:00,63.7,63.7,29.88,North,0,0.0,3.1,100,0.00,,,0.00,VWS V14.01,2013-05-22 04:55:00,
2013-05-22 01:00:00,64.0,64.0,29.88,SSW,195,3.6,3.6,100,0.00,,,0.00,VWS V14.01,2013-05-22 05:00:00,
2013-05-22 01:10:00,64.8,64.8,29.88,SSW,204,5.8,8.1,100,0.00,,,0.00,VWS V14.01,2013-05-22 05:10:00,
2013-05-22 01:15:00,64.9,64.9,29.88,South,169,5.8,8.1,100,0.00,,,0.00,VWS V14.01,2013-05-22 05:15:00,
2013-05-22 01:20:00,64.9,64.9,29.88,South,184,3.6,8.1,100,0.00,,,0.00,VWS V14.01,2013-05-22 05:20:00,
2013-05-22 01:25:00,64.9,64.9,29.88,South,185,0.0,6.3,100,0.00,,,0.00,VWS V14.01,2013-05-22 05:25:00,
2013-05-22 01:30:00,64.8,64.8,29.88,South,185,0.0,6.3,100,0.00,,,0.00,VWS V14.01,2013-05-22 05:30:00,
2013-05-22 01:35:00,64.8,64.8,29.88,South,185,0.0,3.6,100,0.00,,,0.00,VWS V14.01,2013-05-22 05:35:00,
2013-05-22 01:40:00,64.6,64.6,29.85,South,185,0.0,0.0,100,0.00,,,0.00,VWS V14.01,2013-05-22 05:40:00,
2013-05-22 01:45:00,64.8,64.8,29.85,South,185,0.0,0.0,100,0.00,,,0.00,VWS V14.01,2013-05-22 05:45:00,
2013-05-22 01:50:00,65.1,65.1,29.85,SW,214,4.9,4.9,100,0.00,,,0.00,VWS V14.01,2013-05-22 05:50:00,
2013-05-22 02:00:00,64.8,64.8,29.85,SSW,194,4.0,4.9,100,0.00,,,0.00,VWS V14.01,2013-05-22 06:00:00,
2013-05-22 02:10:00,65.3,65.3,29.85,South,191,3.1,8.1,100,0.00,,,0.00,VWS V14.01,2013-05-22 06:10:00,
2013-05-22 02:15:00,65.3,65.3,29.85,South,178,0.0,6.3,100,0.00,,,0.00,VWS V14.01,2013-05-22 06:15:00,
2013-05-22 02:20:00,65.3,65.3,29.85,South,182,4.0,6.3,100,0.00,,,0.00,VWS V14.01,2013-05-22 06:20:00,
2013-05-22 02:25:00,65.3,65.3,29.85,South,183,3.6,5.8,100,0.00,,,0.00,VWS V14.01,2013-05-22 06:25:00,
2013-05-22 02:30:00,65.3,65.3,29.85,SSW,193,2.7,5.8,100,0.00,,,0.00,VWS V14.01,2013-05-22 06:30:00,
2013-05-22 02:35:00,65.3,65.3,29.85,South,189,5.4,5.8,100,0.00,,,0.00,VWS V14.01,2013-05-22 06:35:00,
2013-05-22 02:40:00,65.3,65.3,29.85,South,180,2.7,6.3,100,0.00,,,0.00,VWS V14.01,2013-05-22 06:40:00,
2013-05-22 02:45:00,65.3,65.3,29.85,South,181,5.4,8.3,100,0.00,,,0.00,VWS V14.01,2013-05-22 06:45:00,
2013-05-22 02:50:00,65.3,65.3,29.85,SSW,203,6.3,8.3,100,0.00,,,0.00,VWS V14.01,2013-05-22 06:50:00,
2013-05-22 02:55:00,65.3,65.3,29.85,South,180,2.7,8.3,100,0.00,,,0.00,VWS V14.01,2013-05-22 06:55:00,
2013-05-22 03:00:00,65.3,65.3,29.85,SSW,195,4.0,8.3,100,0.00,,,0.00,VWS V14.01,2013-05-22 07:00:00,
2013-05-22 03:10:00,65.1,65.1,29.85,SSW,195,0.0,6.3,100,0.00,,,0.00,VWS V14.01,2013-05-22 07:10:00,
2013-05-22 03:15:00,64.8,64.8,29.85,SSW,195,0.0,6.3,100,0.00,,,0.00,VWS V14.01,2013-05-22 07:15:00,
2013-05-22 03:20:00,65.1,65.1,29.85,SSW,197,5.8,6.3,100,0.00,,,0.00,VWS V14.01,2013-05-22 07:20:00,
2013-05-22 03:25:00,65.1,65.1,29.85,South,181,2.7,6.3,100,0.00,,,0.00,VWS V14.01,2013-05-22 07:25:00,
2013-05-22 03:30:00,65.1,65.1,29.85,South,169,4.0,6.3,100,0.00,,,0.00,VWS V14.01,2013-05-22 07:30:00,
2013-05-22 03:35:00,64.9,64.9,29.85,SSE,152,4.9,5.8,100,0.00,,,0.00,VWS V14.01,2013-05-22 07:35:00,
2013-05-22 03:40:00,64.9,64.9,29.85,South,181,3.6,5.8,100,0.00,,,0.00,VWS V14.01,2013-05-22 07:40:00,
2013-05-22 03:45:00,64.9,64.9,29.85,SSE,165,2.7,6.3,100,0.00,,,0.00,VWS V14.01,2013-05-22 07:45:00,
2013-05-22 03:50:00,64.6,64.6,29.85,SSW,193,0.0,6.3,100,0.00,,,0.00,VWS V14.01,2013-05-22 07:50:00,
2013-05-22 03:55:00,64.4,64.4,29.85,SSW,212,0.0,6.3,100,0.00,,,0.00,VWS V14.01,2013-05-22 07:55:00,
2013-05-22 04:00:00,64.8,64.8,29.85,South,174,3.6,5.4,100,0.00,,,0.00,VWS V14.01,2013-05-22 08:00:00,
2013-05-22 04:10:00,64.9,64.9,29.85,South,177,4.0,8.7,100,0.00,,,0.00,VWS V14.01,2013-05-22 08:10:00,
2013-05-22 04:15:00,64.8,64.8,29.85,SSW,192,3.1,8.7,100,0.00,,,0.00,VWS V14.01,2013-05-22 08:15:00,
2013-05-22 04:20:00,64.8,64.8,29.85,South,187,0.0,6.3,100,0.00,,,0.00,VWS V14.01,2013-05-22 08:20:00,
2013-05-22 04:25:00,64.4,64.4,29.85,South,172,4.0,6.3,100,0.00,,,0.00,VWS V14.01,2013-05-22 08:25:00,
2013-05-22 04:30:00,64.2,64.2,29.85,South,181,0.0,5.8,100,0.00,,,0.00,VWS V14.01,2013-05-22 08:30:00,
2013-05-22 04:35:00,63.9,63.9,29.85,South,181,0.0,4.0,100,0.00,,,0.00,VWS V14.01,2013-05-22 08:35:00,
2013-05-22 04:40:00,64.0,64.0,29.85,SSW,193,0.0,4.9,100,0.00,,,0.00,VWS V14.01,2013-05-22 08:40:00,
2013-05-22 04:45:00,63.5,63.5,29.85,SSW,193,0.0,4.9,100,0.00,,,0.00,VWS V14.01,2013-05-22 08:45:00,
2013-05-22 04:50:00,63.3,63.3,29.85,SSW,193,0.0,4.9,100,0.00,,,0.00,VWS V14.01,2013-05-22 08:50:00,
2013-05-22 04:55:00,63.1,63.1,29.85,SSW,193,0.0,3.1,100,0.00,,,0.00,VWS V14.01,2013-05-22 08:55:00,
2013-05-22 05:05:00,63.0,63.0,29.85,SSW,193,0.0,0.0,100,0.00,,,0.00,VWS V14.01,2013-05-22 09:05:00,
2013-05-22 05:10:00,64.0,64.0,29.88,South,180,4.0,8.1,100,0.00,,,0.00,VWS V14.01,2013-05-22 09:10:00,
2013-05-22 05:15:00,64.0,64.0,29.88,SE,145,3.6,8.1,100,0.00,,,0.00,VWS V14.01,2013-05-22 09:15:00,
2013-05-22 05:20:00,63.3,63.3,29.88,ESE,114,0.0,8.1,100,0.00,,,0.00,VWS V14.01,2013-05-22 09:20:00,
2013-05-22 05:30:00,63.5,63.5,29.85,SE,130,0.0,4.0,100,0.00,,,0.00,VWS V14.01,2013-05-22 09:30:00,
2013-05-22 05:40:00,62.6,62.6,29.85,South,177,0.0,3.6,100,0.00,,,0.00,VWS V14.01,2013-05-22 09:40:00,
2013-05-22 05:45:00,62.8,62.8,29.85,South,177,0.0,2.2,100,0.00,,,0.00,VWS V14.01,2013-05-22 09:45:00,
2013-05-22 05:55:00,62.6,62.6,29.85,North,0,3.1,3.6,100,0.00,,,0.00,VWS V14.01,2013-05-22 09:55:00,
2013-05-22 06:00:00,62.8,62.8,29.85,North,357,2.2,4.0,100,0.00,,,0.00,VWS V14.01,2013-05-22 10:00:00,
2013-05-22 06:05:00,62.8,62.8,29.85,North,0,0.0,4.0,100,0.00,,,0.00,VWS V14.01,2013-05-22 10:05:00,
2013-05-22 06:15:00,62.2,62.2,29.85,NNE,23,0.0,0.0,100,0.00,,,0.00,VWS V14.01,2013-05-22 10:15:00,
2013-05-22 06:25:00,62.4,62.4,29.85,NNE,22,0.0,0.0,100,0.00,,,0.00,VWS V14.01,2013-05-22 10:25:00,
2013-05-22 06:30:00,62.8,62.8,29.85,NNE,22,0.0,0.0,100,0.00,,,0.00,VWS V14.01,2013-05-22 10:30:00,
2013-05-22 06:40:00,63.0,63.0,29.85,NNE,22,0.0,2.7,100,0.00,,,0.00,VWS V14.01,2013-05-22 10:40:00,
2013-05-22 06:45:00,63.5,63.5,29.85,NNE,22,0.0,2.7,100,0.00,,,0.00,VWS V14.01,2013-05-22 10:45:00,
2013-05-22 06:50:00,63.9,63.9,29.85,South,189,0.0,3.1,100,0.00,,,0.00,VWS V14.01,2013-05-22 10:50:00,
2013-05-22 07:00:00,64.4,64.4,29.85,SSW,195,4.0,4.9,100,0.00,,,0.00,VWS V14.01,2013-05-22 11:00:00,
2013-05-22 07:05:00,65.1,65.1,29.85,South,189,3.6,6.3,100,0.00,,,0.00,VWS V14.01,2013-05-22 11:05:00,
2013-05-22 07:15:00,65.8,65.8,29.85,SSW,198,3.6,8.1,100,0.00,,,0.00,VWS V14.01,2013-05-22 11:15:00,
2013-05-22 07:25:00,66.2,66.2,29.88,South,188,4.9,7.6,100,0.00,,,0.00,VWS V14.01,2013-05-22 11:25:00,
2013-05-22 07:30:00,66.4,66.4,29.88,South,183,2.2,7.6,100,0.00,,,0.00,VWS V14.01,2013-05-22 11:30:00,
2013-05-22 07:40:00,66.4,66.4,29.88,South,183,0.0,5.8,100,0.00,,,0.00,VWS V14.01,2013-05-22 11:40:00,
2013-05-22 07:50:00,66.4,66.4,29.88,South,189,0.0,5.8,100,0.00,,,0.00,VWS V14.01,2013-05-22 11:50:00,
2013-05-22 08:00:00,66.4,66.4,29.88,South,189,0.0,3.1,100,0.00,,,0.00,VWS V14.01,2013-05-22 12:00:00,
2013-05-22 08:10:00,66.7,66.7,29.88,North,8,3.6,4.9,100,0.00,,,0.00,VWS V14.01,2013-05-22 12:10:00,
2013-05-22 08:15:00,67.1,67.1,29.88,NE,46,0.0,4.9,100,0.00,,,0.00,VWS V14.01,2013-05-22 12:15:00,
2013-05-22 08:25:00,67.5,67.5,29.88,SSE,152,0.0,4.0,100,0.00,,,0.00,VWS V14.01,2013-05-22 12:25:00,
2013-05-22 08:35:00,67.5,67.5,29.88,South,184,4.9,4.9,100,0.00,,,0.00,VWS V14.01,2013-05-22 12:35:00,
2013-05-22 08:40:00,67.6,67.6,29.88,South,188,3.1,4.9,100,0.00,,,0.00,VWS V14.01,2013-05-22 12:40:00,
2013-05-22 08:50:00,68.0,68.0,29.88,SSW,197,0.0,6.3,100,0.00,,,0.00,VWS V14.01,2013-05-22 12:50:00,
2013-05-22 09:00:00,68.0,68.0,29.88,SSW,193,3.1,4.0,100,0.00,,,0.00,VWS V14.01,2013-05-22 13:00:00,
2013-05-22 09:05:00,68.0,68.0,29.88,South,189,4.0,5.4,100,0.00,,,0.00,VWS V14.01,2013-05-22 13:05:00,
2013-05-22 09:10:00,68.9,68.9,29.88,SSW,193,3.1,6.3,100,0.00,,,0.00,VWS V14.01,2013-05-22 13:10:00,
2013-05-22 09:20:00,69.4,69.4,29.88,South,178,0.0,6.3,100,0.00,,,0.00,VWS V14.01,2013-05-22 13:20:00,
2013-05-22 09:25:00,69.4,69.4,29.88,SSW,200,2.2,6.3,100,0.00,,,0.00,VWS V14.01,2013-05-22 13:25:00,
2013-05-22 09:35:00,69.4,69.4,29.88,SE,139,0.0,6.3,100,0.00,,,0.00,VWS V14.01,2013-05-22 13:35:00,
2013-05-22 09:45:00,69.4,69.4,29.88,SW,231,0.0,8.7,100,0.00,,,0.00,VWS V14.01,2013-05-22 13:45:00,
2013-05-22 09:50:00,70.3,68.3,29.88,SSW,207,5.4,8.7,93,0.00,,,0.00,VWS V14.01,2013-05-22 13:50:00,
2013-05-22 10:00:00,70.9,68.5,29.88,SSW,205,4.9,10.1,92,0.00,,,0.00,VWS V14.01,2013-05-22 14:00:00,
2013-05-22 10:10:00,73.2,69.9,29.88,South,182,4.0,8.1,89,0.00,,,0.00,VWS V14.01,2013-05-22 14:10:00,
2013-05-22 10:20:00,72.5,68.5,29.88,SSW,192,3.6,8.3,87,0.00,,,0.00,VWS V14.01,2013-05-22 14:20:00,
2013-05-22 10:30:00,72.0,67.7,29.88,South,179,8.1,8.7,86,0.00,,,0.00,VWS V14.01,2013-05-22 14:30:00,
2013-05-22 10:35:00,72.7,69.0,29.88,SSW,203,4.0,8.7,88,0.00,,,0.00,VWS V14.01,2013-05-22 14:35:00,
2013-05-22 10:40:00,73.0,68.7,29.88,South,187,2.7,8.7,86,0.00,,,0.00,VWS V14.01,2013-05-22 14:40:00,
2013-05-22 10:45:00,73.4,68.7,29.88,South,189,0.0,8.1,85,0.00,,,0.00,VWS V14.01,2013-05-22 14:45:00,
2013-05-22 10:55:00,73.6,68.9,29.88,SSW,199,3.6,7.6,85,0.00,,,0.00,VWS V14.01,2013-05-22 14:55:00,
2013-05-22 11:00:00,73.8,69.1,29.88,SSW,196,4.0,7.6,85,0.00,,,0.00,VWS V14.01,2013-05-22 15:00:00,
2013-05-22 11:10:00,73.9,69.2,29.88,SSW,198,6.3,8.3,85,0.00,,,0.00,VWS V14.01,2013-05-22 15:10:00,
2013-05-22 11:20:00,73.9,68.9,29.88,SSW,200,5.4,8.3,84,0.00,,,0.00,VWS V14.01,2013-05-22 15:20:00,
2013-05-22 11:25:00,73.9,68.9,29.88,SW,214,8.1,8.7,84,0.00,,,0.00,VWS V14.01,2013-05-22 15:25:00,
2013-05-22 11:30:00,73.4,68.7,29.88,SSW,193,6.7,8.7,85,0.00,,,0.00,VWS V14.01,2013-05-22 15:30:00,
2013-05-22 11:35:00,73.0,68.7,29.88,South,191,8.3,8.7,86,0.00,,,0.00,VWS V14.01,2013-05-22 15:35:00,
2013-05-22 11:45:00,73.0,68.7,29.88,SSW,198,5.4,8.7,86,0.00,,,0.00,VWS V14.01,2013-05-22 15:45:00,
2013-05-22 11:55:00,72.5,68.2,29.88,South,186,5.8,11.9,86,0.00,,,0.00,VWS V14.01,2013-05-22 15:55:00,
2013-05-22 12:05:00,72.9,68.5,29.88,SSW,212,6.3,10.5,86,0.00,,,0.00,VWS V14.01,2013-05-22 16:05:00,
2013-05-22 12:15:00,74.1,69.1,29.88,SSW,195,4.9,11.9,84,0.00,,,0.00,VWS V14.01,2013-05-22 16:15:00,
2013-05-22 12:20:00,74.5,69.1,29.88,South,184,6.3,10.5,83,0.00,,,0.00,VWS V14.01,2013-05-22 16:20:00,
2013-05-22 12:30:00,74.5,68.4,29.88,South,180,4.0,10.5,81,0.00,,,0.00,VWS V14.01,2013-05-22 16:30:00,
2013-05-22 12:40:00,75.2,66.5,29.88,SSW,213,5.4,11.0,74,0.00,,,0.00,VWS V14.01,2013-05-22 16:40:00,
2013-05-22 12:50:00,75.0,67.4,29.88,SSW,195,5.4,11.0,77,0.00,,,0.00,VWS V14.01,2013-05-22 16:50:00,
2013-05-22 12:55:00,76.3,69.0,29.88,SSW,196,6.3,8.3,78,0.00,,,0.00,VWS V14.01,2013-05-22 16:55:00,
2013-05-22 13:00:00,76.6,69.0,29.88,SW,228,6.3,8.3,77,0.00,,,0.00,VWS V14.01,2013-05-22 17:00:00,
2013-05-22 13:05:00,76.8,68.8,29.88,SSW,199,4.9,9.2,76,0.00,,,0.00,VWS V14.01,2013-05-22 17:05:00,
2013-05-22 13:15:00,78.6,66.9,29.88,SSW,206,5.8,8.1,67,0.00,,,0.00,VWS V14.01,2013-05-22 17:15:00,
2013-05-22 13:25:00,79.2,65.6,29.88,South,176,6.3,6.3,63,0.00,,,0.00,VWS V14.01,2013-05-22 17:25:00,
2013-05-22 13:30:00,80.2,65.2,29.88,SW,230,5.8,6.3,60,0.00,,,0.00,VWS V14.01,2013-05-22 17:30:00,
2013-05-22 13:40:00,80.1,64.6,29.85,SSW,207,11.0,11.0,59,0.00,,,0.00,VWS V14.01,2013-05-22 17:40:00,
2013-05-22 13:50:00,80.6,62.6,29.85,SSW,198,8.7,11.4,54,0.00,,,0.00,VWS V14.01,2013-05-22 17:50:00,
2013-05-22 14:00:00,81.0,63.5,29.85,SSW,195,8.1,13.2,55,0.00,,,0.00,VWS V14.01,2013-05-22 18:00:00,
2013-05-22 14:05:00,80.4,64.9,29.85,SSW,194,7.2,13.2,59,0.00,,,0.00,VWS V14.01,2013-05-22 18:05:00,
2013-05-22 14:10:00,81.9,66.3,29.85,SSW,197,5.8,13.2,59,0.00,,,0.00,VWS V14.01,2013-05-22 18:10:00,
2013-05-22 14:15:00,81.7,65.1,29.85,SSW,210,6.3,10.5,57,0.00,,,0.00,VWS V14.01,2013-05-22 18:15:00,
2013-05-22 14:25:00,81.3,64.3,29.85,South,185,8.1,13.2,56,0.00,,,0.00,VWS V14.01,2013-05-22 18:25:00,
2013-05-22 14:35:00,82.2,65.1,29.85,SSW,202,7.6,13.2,56,0.00,,,0.00,VWS V14.01,2013-05-22 18:35:00,
2013-05-22 14:40:00,81.5,63.4,29.85,SSW,194,6.3,8.7,54,0.00,,,0.00,VWS V14.01,2013-05-22 18:40:00,
2013-05-22 14:50:00,81.1,63.6,29.85,South,179,8.1,12.8,55,0.00,,,0.00,VWS V14.01,2013-05-22 18:50:00,
2013-05-22 15:00:00,81.1,63.6,29.85,ESE,107,4.0,12.8,55,0.00,,,0.00,VWS V14.01,2013-05-22 19:00:00,
2013-05-22 15:10:00,82.4,63.2,29.83,SE,124,4.0,12.8,52,0.00,,,0.00,VWS V14.01,2013-05-22 19:10:00,
2013-05-22 15:15:00,82.9,64.8,29.83,South,178,3.6,11.0,54,0.00,,,0.00,VWS V14.01,2013-05-22 19:15:00,
2013-05-22 15:25:00,82.0,62.3,29.83,South,190,3.6,12.8,51,0.00,,,0.00,VWS V14.01,2013-05-22 19:25:00,
2013-05-22 15:35:00,83.1,64.9,29.83,SSW,194,8.1,14.5,54,0.00,,,0.00,VWS V14.01,2013-05-22 19:35:00,
2013-05-22 15:45:00,83.1,64.9,29.83,SSE,159,4.0,14.5,54,0.00,,,0.00,VWS V14.01,2013-05-22 19:45:00,
2013-05-22 15:50:00,83.1,64.9,29.83,SSW,207,8.1,14.5,54,0.00,,,0.00,VWS V14.01,2013-05-22 19:50:00,
2013-05-22 16:00:00,83.1,64.9,29.83,SSW,204,8.3,11.4,54,0.00,,,0.00,VWS V14.01,2013-05-22 20:00:00,
2013-05-22 16:10:00,83.1,64.9,29.83,SSW,192,8.1,12.8,54,0.00,,,0.00,VWS V14.01,2013-05-22 20:10:00,
2013-05-22 16:20:00,87.1,64.0,29.83,SW,219,3.1,12.8,46,0.00,,,0.00,VWS V14.01,2013-05-22 20:20:00,
2013-05-22 16:25:00,87.4,63.1,29.83,WSW,246,3.6,12.8,44,0.00,,,0.00,VWS V14.01,2013-05-22 20:25:00,
2013-05-22 16:35:00,86.5,62.9,29.83,SW,214,6.3,8.1,45,0.00,,,0.00,VWS V14.01,2013-05-22 20:35:00,
2013-05-22 16:45:00,86.5,62.9,29.80,SSW,193,2.7,8.3,45,0.00,,,0.00,VWS V14.01,2013-05-22 20:45:00,
2013-05-22 16:55:00,87.8,64.0,29.80,SSW,198,2.7,8.3,45,0.00,,,0.00,VWS V14.01,2013-05-22 20:55:00,
2013-05-22 17:00:00,87.1,63.4,29.80,SSW,203,5.4,8.1,45,0.00,,,0.00,VWS V14.01,2013-05-22 21:00:00,
2013-05-22 17:10:00,86.5,64.1,29.80,South,184,2.7,8.3,47,0.00,,,0.00,VWS V14.01,2013-05-22 21:10:00,
2013-05-22 17:15:00,86.0,64.2,29.80,SSW,197,6.3,8.3,48,0.00,,,0.00,VWS V14.01,2013-05-22 21:15:00,
2013-05-22 17:20:00,86.5,64.1,29.80,SSE,168,4.0,8.1,47,0.00,,,0.00,VWS V14.01,2013-05-22 21:20:00,
2013-05-22 17:30:00,86.7,64.3,29.80,SE,135,3.6,8.1,47,0.00,,,0.00,VWS V14.01,2013-05-22 21:30:00,
2013-05-22 17:35:00,86.9,65.0,29.80,South,170,0.0,5.8,48,0.00,,,0.00,VWS V14.01,2013-05-22 21:35:00,
2013-05-22 17:45:00,84.7,64.8,29.80,ESE,103,3.1,5.8,51,0.00,,,0.00,VWS V14.01,2013-05-22 21:45:00,
2013-05-22 17:55:00,81.9,66.3,29.80,ENE,77,6.7,11.0,59,0.00,,,0.00,VWS V14.01,2013-05-22 21:55:00,
2013-05-22 18:00:00,81.0,66.4,29.80,ESE,120,3.6,11.0,61,0.00,,,0.00,VWS V14.01,2013-05-22 22:00:00,
2013-05-22 18:10:00,81.1,67.0,29.80,East,93,6.3,8.7,62,0.00,,,0.00,VWS V14.01,2013-05-22 22:10:00,
2013-05-22 18:20:00,81.5,66.9,29.80,SE,144,3.6,8.3,61,0.00,,,0.00,VWS V14.01,2013-05-22 22:20:00,
2013-05-22 18:30:00,81.7,66.6,29.80,SE,133,3.6,8.3,60,0.00,,,0.00,VWS V14.01,2013-05-22 22:30:00,
2013-05-22 18:40:00,81.5,66.9,29.80,East,95,3.6,8.3,61,0.00,,,0.00,VWS V14.01,2013-05-22 22:40:00,
2013-05-22 18:45:00,80.6,66.1,29.80,ESE,104,3.6,8.3,61,0.00,,,0.00,VWS V14.01,2013-05-22 22:45:00,
2013-05-22 18:50:00,79.9,65.8,29.80,SW,214,5.8,12.8,62,0.00,,,0.00,VWS V14.01,2013-05-22 22:50:00,
2013-05-22 18:55:00,80.2,66.7,29.80,ESE,104,8.1,12.8,63,0.00,,,0.00,VWS V14.01,2013-05-22 22:55:00,
2013-05-22 19:05:00,79.9,67.2,29.80,SSE,149,2.7,11.0,65,0.00,,,0.00,VWS V14.01,2013-05-22 23:05:00,
2013-05-22 19:15:00,77.9,66.6,29.80,SSW,206,3.6,6.3,68,0.00,,,0.00,VWS V14.01,2013-05-22 23:15:00,
2013-05-22 19:20:00,77.7,66.9,29.80,SSW,203,3.1,6.3,69,0.00,,,0.00,VWS V14.01,2013-05-22 23:20:00,
2013-05-22 19:30:00,76.8,67.2,29.77,ESE,103,5.4,8.1,72,0.00,,,0.00,VWS V14.01,2013-05-22 23:30:00,
2013-05-22 19:35:00,76.5,66.9,29.77,East,97,3.1,8.1,72,0.00,,,0.00,VWS V14.01,2013-05-22 23:35:00,
2013-05-22 19:40:00,75.9,67.2,29.77,SSE,156,3.6,10.1,74,0.00,,,0.00,VWS V14.01,2013-05-22 23:40:00,
2013-05-22 19:50:00,75.4,67.0,29.77,South,171,3.6,10.1,75,0.00,,,0.00,VWS V14.01,2013-05-22 23:50:00,
2013-05-22 19:55:00,75.2,67.2,29.77,South,183,4.0,7.6,76,0.00,,,0.00,VWS V14.01,2013-05-22 23:55:00,
2013-05-22 20:05:00,75.2,67.2,29.77,SSW,197,2.7,7.6,76,0.00,,,0.00,VWS V14.01,2013-05-23 00:05:00,
2013-05-22 20:15:00,75.0,67.4,29.77,South,191,0.0,4.9,77,0.00,,,0.00,VWS V14.01,2013-05-23 00:15:00,
2013-05-22 20:20:00,74.3,67.1,29.77,ESE,120,0.0,4.9,78,0.00,,,0.00,VWS V14.01,2013-05-23 00:20:00,
2013-05-22 20:30:00,73.4,67.3,29.77,SE,141,0.0,5.8,81,0.00,,,0.00,VWS V14.01,2013-05-23 00:30:00,
2013-05-22 20:40:00,73.8,68.0,29.77,South,186,2.2,5.4,82,0.00,,,0.00,VWS V14.01,2013-05-23 00:40:00,
2013-05-22 20:50:00,73.6,68.2,29.80,SE,130,0.0,5.4,83,0.00,,,0.00,VWS V14.01,2013-05-23 00:50:00,
2013-05-22 21:00:00,72.3,68.0,29.80,South,180,2.2,5.4,86,0.00,,,0.00,VWS V14.01,2013-05-23 01:00:00,
2013-05-22 21:05:00,72.9,68.5,29.80,SSW,213,0.0,5.8,86,0.00,,,0.00,VWS V14.01,2013-05-23 01:05:00,
2013-05-22 21:15:00,72.3,68.7,29.80,South,171,2.7,5.8,88,0.00,,,0.00,VWS V14.01,2013-05-23 01:15:00,
2013-05-22 21:25:00,72.9,70.5,29.80,West,264,8.1,15.0,92,0.00,,,0.00,VWS V14.01,2013-05-23 01:25:00,
2013-05-22 21:35:00,70.7,67.7,29.80,SW,215,3.6,15.4,90,0.00,,,0.00,VWS V14.01,2013-05-23 01:35:00,
2013-05-22 21:40:00,70.5,68.5,29.80,South,191,3.6,15.4,93,0.00,,,0.00,VWS V14.01,2013-05-23 01:40:00,
2013-05-22 21:45:00,69.8,68.7,29.80,ESE,118,4.9,6.3,96,0.00,,,0.00,VWS V14.01,2013-05-23 01:45:00,
2013-05-22 21:50:00,72.1,69.2,29.80,SSW,200,12.3,17.4,90,0.00,,,0.00,VWS V14.01,2013-05-23 01:50:00,
2013-05-22 21:55:00,72.0,66.3,29.83,SSW,202,7.6,17.4,82,0.00,,,0.00,VWS V14.01,2013-05-23 01:55:00,
2013-05-22 22:00:00,71.2,65.2,29.83,SSE,159,8.3,17.4,81,0.00,,,0.00,VWS V14.01,2013-05-23 02:00:00,
2013-05-22 22:10:00,71.8,62.0,29.83,South,181,15.4,15.4,71,0.00,,,0.00,VWS V14.01,2013-05-23 02:10:00,
2013-05-22 22:15:00,71.6,61.4,29.83,SE,136,11.0,15.4,70,0.00,,,0.00,VWS V14.01,2013-05-23 02:15:00,
2013-05-22 22:25:00,71.6,61.0,29.83,WSW,239,3.6,19.7,69,0.00,,,0.00,VWS V14.01,2013-05-23 02:25:00,
2013-05-22 22:35:00,71.4,59.6,29.83,South,185,10.1,16.3,66,0.00,,,0.00,VWS V14.01,2013-05-23 02:35:00,
2013-05-22 22:40:00,71.2,59.4,29.83,SSW,196,8.1,14.1,66,0.00,,,0.00,VWS V14.01,2013-05-23 02:40:00,
2013-05-22 22:50:00,70.9,59.1,29.83,South,172,8.1,14.1,66,0.00,,,0.00,VWS V14.01,2013-05-23 02:50:00,
2013-05-22 23:00:00,71.2,58.6,29.83,South,191,13.2,14.1,64,0.00,,,0.00,VWS V14.01,2013-05-23 03:00:00,
2013-05-22 23:10:00,71.2,58.1,29.83,SSW,194,8.7,15.9,63,0.00,,,0.00,VWS V14.01,2013-05-23 03:10:00,
2013-05-22 23:20:00,71.1,57.5,29.83,South,174,8.3,16.3,62,0.00,,,0.00,VWS V14.01,2013-05-23 03:20:00,
2013-05-22 23:25:00,70.7,58.1,29.83,South,171,8.3,16.3,64,0.00,,,0.00,VWS V14.01,2013-05-23 03:25:00,
2013-05-22 23:35:00,70.2,58.4,29.83,SSE,165,4.9,14.5,66,0.00,,,0.00,VWS V14.01,2013-05-23 03:35:00,
2013-05-22 23:45:00,69.8,58.1,29.83,South,191,6.7,10.5,66,0.00,,,0.00,VWS V14.01,2013-05-23 03:45:00,
2013-05-22 23:55:00,70.2,58.0,29.83,South,190,5.8,11.0,65,0.00,,,0.00,VWS V14.01,2013-05-23 03:55:00,